Time;durP1;ratioP1;P1;durP2;ratioP2;P2;SDS_P1;SDS_P2;PMS_P1;PMS_P2;Temp;Humidity;BMP_temperature;BMP_pressure;BME280_temperature;BME280_humidity;BME280_pressure;Samples;Min_cycle;Max_cycle;Signal;HPM_P1;HPM_P2
2022/04/09 00:00:14;;;;;;;0.60;0.40;;;;;;;16.98;58.25;95185.31;10402538;28;20037;-21
2022/04/09 00:05:15;;;;;;;2.38;0.50;;;;;;;16.95;56.84;95192.94;10410389;28;20044;-22
2022/04/09 00:10:16;;;;;;;2.90;0.50;;;;;;;16.90;55.93;95235.19;10402985;28;20040;-22
2022/04/09 00:15:16;;;;;;;1.17;0.88;;;;;;;16.88;55.81;95247.84;10411972;28;20120;-21
2022/04/09 00:20:18;;;;;;;1.07;0.40;;;;;;;16.84;56.06;95253.78;10411855;28;20411;-22
2022/04/09 00:25:23;;;;;;;1.48;0.55;;;;;;;16.88;55.35;95295.00;10400662;28;20860;-23
2022/04/09 00:30:24;;;;;;;0.93;0.20;;;;;;;16.90;55.55;95321.13;10406846;28;20098;-21
2022/04/09 00:35:24;;;;;;;0.88;0.50;;;;;;;16.90;55.89;95361.56;10407489;28;20095;-22
2022/04/09 00:40:28;;;;;;;2.20;0.73;;;;;;;16.90;55.38;95379.25;10402967;28;20079;-22
2022/04/09 00:45:29;;;;;;;6.10;0.50;;;;;;;16.89;55.41;95408.75;10405205;28;20145;-23
2022/04/09 00:50:30;;;;;;;3.10;0.73;;;;;;;16.91;56.00;95436.53;10405871;28;20029;-22
2022/04/09 01:00:50;;;;;;;2.13;0.60;;;;;;;16.98;60.24;95488.69;10394461;28;20463;-21
2022/04/09 01:05:51;;;;;;;4.57;0.90;;;;;;;17.03;61.82;95482.69;10406920;28;20042;-22
2022/04/09 01:10:52;;;;;;;1.23;0.30;;;;;;;17.03;57.20;95494.50;10412755;28;20046;-22
2022/04/09 01:15:55;;;;;;;1.08;0.40;;;;;;;16.99;56.22;95518.16;10416356;28;20093;-22
2022/04/09 01:20:58;;;;;;;1.75;0.40;;;;;;;16.95;56.06;95531.69;10413202;28;20064;-24
2022/04/09 01:26:00;;;;;;;2.92;0.38;;;;;;;16.93;55.91;95559.53;10411208;28;20507;-21
2022/04/09 01:31:01;;;;;;;0.50;0.30;;;;;;;16.93;55.60;95574.69;10412957;28;20025;-22
2022/04/09 01:36:02;;;;;;;0.77;0.50;;;;;;;16.93;55.43;95581.44;10412580;28;20567;-22
2022/04/09 01:41:04;;;;;;;0.30;0.17;;;;;;;16.90;55.76;95594.13;10413532;28;20040;-22
2022/04/09 01:46:10;;;;;;;1.17;0.30;;;;;;;16.89;55.38;95613.50;10410788;28;20068;-22
2022/04/09 01:51:11;;;;;;;0.85;0.30;;;;;;;16.92;55.81;95632.84;10412325;28;20316;-22
2022/04/09 01:56:11;;;;;;;0.87;0.30;;;;;;;16.89;55.54;95648.06;10409283;28;20056;-22
2022/04/09 02:01:18;;;;;;;3.25;0.35;;;;;;;16.89;55.78;95665.75;10413312;28;20276;-22
2022/04/09 02:06:19;;;;;;;0.52;0.17;;;;;;;16.90;56.19;95677.53;10402266;28;20143;-22
2022/04/09 02:11:20;;;;;;;2.20;1.98;;;;;;;16.99;60.96;95679.97;10412702;28;20030;-22
2022/04/09 02:16:21;;;;;;;1.33;0.52;;;;;;;17.00;60.41;95689.22;10412645;28;20025;-22
2022/04/09 02:21:21;;;;;;;2.00;0.50;;;;;;;16.97;56.36;95714.50;10410238;28;20036;-22
2022/04/09 02:26:22;;;;;;;0.40;0.37;;;;;;;16.94;56.02;95722.16;10410632;28;20402;-21
2022/04/09 02:31:22;;;;;;;1.38;0.20;;;;;;;16.94;55.64;95740.69;10406754;28;20033;-22
2022/04/09 02:36:24;;;;;;;0.63;0.40;;;;;;;16.92;56.00;95749.94;10412380;28;20057;-22
2022/04/09 02:41:25;;;;;;;2.13;0.40;;;;;;;16.93;55.74;95760.91;10413092;28;20442;-23
2022/04/09 02:46:30;;;;;;;0.50;0.40;;;;;;;16.92;55.80;95777.75;10409093;28;20117;-22
2022/04/09 02:51:32;;;;;;;1.05;0.52;;;;;;;16.90;55.84;95797.16;10416341;28;20025;-21
2022/04/09 02:56:33;;;;;;;0.45;0.10;;;;;;;16.88;55.75;95810.66;10410237;28;20055;-23
2022/04/09 03:01:34;;;;;;;1.70;0.30;;;;;;;16.90;55.63;95821.63;10407789;28;20036;-23
2022/04/09 03:06:34;;;;;;;0.95;0.30;;;;;;;16.89;55.46;95835.13;10410034;28;20284;-23
2022/04/09 03:11:35;;;;;;;0.37;0.20;;;;;;;16.89;55.67;95850.28;10409954;28;20042;-23
2022/04/09 03:16:35;;;;;;;1.60;0.30;;;;;;;16.91;56.44;95861.22;10405462;28;20057;-22
2022/04/09 03:21:36;;;;;;;2.25;0.40;;;;;;;16.99;60.25;95859.47;10403128;28;20021;-22
2022/04/09 03:26:37;;;;;;;0.82;0.38;;;;;;;17.01;57.78;95872.94;10407233;28;20026;-21
2022/04/09 03:31:37;;;;;;;0.88;0.20;;;;;;;17.00;56.51;95899.06;10405672;28;20033;-22
2022/04/09 03:36:39;;;;;;;1.13;0.30;;;;;;;16.94;55.91;95910.09;10402527;28;20030;-22
2022/04/09 03:41:41;;;;;;;0.38;0.25;;;;;;;16.91;55.69;95924.44;10407542;28;20036;-23
2022/04/09 03:46:42;;;;;;;1.58;0.20;;;;;;;16.89;55.86;95928.66;10403322;28;20029;-22
2022/04/09 03:51:47;;;;;;;0.50;0.17;;;;;;;16.89;55.67;95946.34;10401979;28;20041;-23
2022/04/09 03:56:50;;;;;;;0.52;0.30;;;;;;;16.92;55.86;95966.56;10406583;28;20444;-21
2022/04/09 04:01:53;;;;;;;1.23;0.30;;;;;;;16.90;56.08;95979.19;10401535;28;20116;-23
2022/04/09 04:06:56;;;;;;;0.40;0.30;;;;;;;16.91;55.64;95990.16;10404923;28;20033;-22
2022/04/09 04:11:57;;;;;;;0.65;0.35;;;;;;;16.91;55.81;96000.28;10406235;28;20506;-22
2022/04/09 04:17:00;;;;;;;0.38;0.30;;;;;;;16.83;55.86;95987.66;10405705;28;20457;-22
2022/04/09 04:22:03;;;;;;;0.98;0.43;;;;;;;16.89;55.83;96007.03;10401808;28;20030;-22
2022/04/09 04:27:06;;;;;;;2.05;0.20;;;;;;;16.92;58.47;96023.00;10406025;28;20697;-22
2022/04/09 04:32:08;;;;;;;1.70;0.30;;;;;;;16.99;60.97;96029.72;10405371;28;20103;-22
2022/04/09 04:37:09;;;;;;;0.70;0.30;;;;;;;17.01;57.10;96034.75;10400807;28;20095;-22
2022/04/09 04:42:10;;;;;;;2.85;0.60;;;;;;;16.94;56.02;96041.56;10406585;28;20380;-22
2022/04/09 04:47:11;;;;;;;0.85;0.15;;;;;;;16.96;55.88;96059.22;10407806;28;20491;-22
2022/04/09 04:52:11;;;;;;;2.95;0.20;;;;;;;16.93;55.67;96060.09;10408438;28;20037;-22
2022/04/09 04:57:12;;;;;;;0.50;0.30;;;;;;;16.92;55.66;96067.69;10413677;28;20044;-21
2022/04/09 05:02:12;;;;;;;0.45;0.28;;;;;;;16.89;55.85;96077.81;10410745;28;20037;-23
2022/04/09 05:07:13;;;;;;;0.52;0.20;;;;;;;16.88;56.03;96092.13;10411838;28;20037;-22
2022/04/09 05:12:14;;;;;;;1.55;0.22;;;;;;;16.94;55.69;96086.22;10412755;28;20030;-23
2022/04/09 05:17:17;;;;;;;0.10;0.10;;;;;;;16.96;55.59;96094.63;10410997;28;20030;-22
2022/04/09 05:22:18;;;;;;;0.90;0.32;;;;;;;16.94;56.16;96103.91;10408023;28;20480;-23
2022/04/09 05:27:32;;;;;;;0.52;0.43;;;;;;;16.90;56.46;96094.66;10412427;28;20415;-22
2022/04/09 05:32:39;;;;;;;0.35;0.15;;;;;;;16.94;56.18;96107.28;10412288;28;20211;-21
2022/04/09 05:37:45;;;;;;;1.67;0.30;;;;;;;17.00;57.29;96111.47;10407137;28;20033;-21
2022/04/09 05:42:46;;;;;;;1.23;0.28;;;;;;;17.06;59.07;96126.63;10413141;28;20033;-22
2022/04/09 05:47:49;;;;;;;0.88;0.20;;;;;;;17.07;56.58;96128.31;10411069;28;20495;-21
2022/04/09 05:52:55;;;;;;;3.08;0.40;;;;;;;17.05;56.46;96146.00;10406332;28;20029;-22
2022/04/09 05:57:58;;;;;;;1.02;0.20;;;;;;;17.05;56.02;96145.16;10408800;28;20048;-22
2022/04/09 06:03:02;;;;;;;0.20;0.20;;;;;;;17.02;55.60;96150.22;10396209;28;20021;-22
2022/04/09 06:08:07;;;;;;;0.30;0.20;;;;;;;17.04;56.20;96158.66;10400063;28;20087;-22
2022/04/09 06:13:12;;;;;;;1.02;0.60;;;;;;;17.02;55.75;96168.78;10399583;28;20545;-22
2022/04/09 06:18:14;;;;;;;0.47;0.38;;;;;;;17.03;56.10;96169.59;10399421;28;20026;-22
2022/04/09 06:23:15;;;;;;;0.13;0.10;;;;;;;17.03;55.62;96172.13;10397424;28;20037;-23
2022/04/09 06:28:16;;;;;;;0.82;0.30;;;;;;;17.03;55.94;96184.78;10402642;28;20036;-23
2022/04/09 06:33:23;;;;;;;0.38;0.20;;;;;;;16.94;56.07;96167.13;10400281;28;20033;-22
2022/04/09 06:38:27;;;;;;;1.15;0.20;;;;;;;17.03;56.23;96188.16;10397460;28;20033;-21
2022/04/09 06:43:30;;;;;;;0.20;0.20;;;;;;;17.01;55.98;96192.41;10400134;28;20064;-21
2022/04/09 06:48:59;;;;;;;0.73;0.28;;;;;;;17.07;59.13;96194.06;10401486;28;20065;-23
2022/04/09 06:54:25;;;;;;;1.38;0.35;;;;;;;17.11;59.12;96204.16;10396433;28;20045;-22
2022/04/09 06:59:25;;;;;;;0.98;0.13;;;;;;;17.06;55.40;96215.97;10400266;28;20574;-22
2022/04/09 07:04:26;;;;;;;0.65;0.30;;;;;;;17.05;55.71;96221.03;10398195;28;20086;-23
2022/04/09 07:09:26;;;;;;;0.60;0.20;;;;;;;17.03;55.51;96217.66;10399008;28;20488;-24
2022/04/09 07:14:27;;;;;;;0.53;0.33;;;;;;;17.03;55.71;96222.72;10400753;28;20037;-23
2022/04/09 07:19:27;;;;;;;4.80;0.40;;;;;;;17.03;55.57;96222.72;10404265;28;20298;-22
2022/04/09 07:24:27;;;;;;;0.83;0.40;;;;;;;17.03;55.49;96232.84;10404207;28;20115;-21
2022/04/09 07:29:28;;;;;;;1.23;0.30;;;;;;;17.05;55.21;96241.25;10405593;28;20192;-22
2022/04/09 07:34:28;;;;;;;0.50;0.40;;;;;;;17.04;55.68;96250.53;10408046;28;20515;-21
2022/04/09 07:39:29;;;;;;;1.97;0.70;;;;;;;17.07;55.66;96269.94;10403537;28;20132;-22
2022/04/09 07:44:30;;;;;;;2.42;0.77;;;;;;;16.93;55.27;96266.56;10403392;28;20772;-22
2022/04/09 07:49:30;;;;;;;3.10;0.70;;;;;;;16.97;55.60;96278.34;10407528;28;20044;-21
2022/04/09 07:54:31;;;;;;;2.53;0.70;;;;;;;16.98;55.38;96290.19;10400930;28;20040;-22
2022/04/09 07:59:32;;;;;;;6.93;1.67;;;;;;;17.05;57.79;96297.75;10405782;28;20034;-22
2022/04/09 08:04:32;;;;;;;1.35;0.57;;;;;;;17.08;56.29;96297.72;10404955;28;20064;-21
2022/04/09 08:09:32;;;;;;;4.47;0.50;;;;;;;17.04;55.27;96310.38;10398398;28;20037;-22
2022/04/09 08:14:33;;;;;;;4.83;0.40;;;;;;;17.01;55.42;96310.38;10407328;28;20087;-22
2022/04/09 08:19:37;;;;;;;1.90;0.52;;;;;;;16.99;55.53;96312.91;10402640;28;20052;-21
2022/04/09 08:24:39;;;;;;;37.42;4.38;;;;;;;16.88;56.46;96313.75;10407508;28;20494;-22
2022/04/09 08:29:39;;;;;;;14.07;1.50;;;;;;;16.94;56.39;96313.75;10414969;28;20046;-22
2022/04/09 08:34:40;;;;;;;3.43;1.07;;;;;;;16.91;56.00;96316.31;10413721;28;20029;-22
2022/04/09 08:39:40;;;;;;;5.32;0.85;;;;;;;16.92;55.55;96325.56;10414738;28;20303;-22
2022/04/09 08:44:41;;;;;;;5.43;1.43;;;;;;;16.89;55.48;96320.53;10414890;28;20043;-23
2022/04/09 08:49:46;;;;;;;1.98;0.80;;;;;;;16.92;55.37;96316.28;10406684;28;20091;-22
2022/04/09 08:54:46;;;;;;;12.27;1.88;;;;;;;16.95;55.53;96330.63;10410356;28;20036;-21
2022/04/09 08:59:46;;;;;;;2.00;0.90;;;;;;;16.96;55.50;96333.16;10414895;28;20381;-21
2022/04/09 09:04:47;;;;;;;15.00;1.50;;;;;;;17.02;56.67;96332.31;10412941;28;20457;-22
2022/04/09 09:09:51;;;;;;;14.77;2.27;;;;;;;17.06;59.10;96334.00;10411000;28;20518;-22
2022/04/09 09:14:51;;;;;;;10.63;1.10;;;;;;;17.08;56.67;96342.44;10412913;28;20055;-21
2022/04/09 09:19:52;;;;;;;4.90;1.30;;;;;;;17.06;55.88;96344.94;10414456;28;20037;-22
2022/04/09 09:25:04;;;;;;;9.43;1.50;;;;;;;17.02;57.59;96345.81;10412191;28;20034;-22
2022/04/09 09:30:05;;;;;;;7.72;1.67;;;;;;;17.03;55.92;96351.69;10412012;28;20292;-23
2022/04/09 09:35:06;;;;;;;4.68;1.48;;;;;;;16.99;55.53;96347.50;10409789;28;20434;-21
2022/04/09 09:40:07;;;;;;;4.50;1.48;;;;;;;16.99;56.35;96357.59;10408716;28;20117;-21
2022/04/09 09:45:08;;;;;;;35.90;3.53;;;;;;;17.03;56.69;96359.28;10412766;28;20120;-22
2022/04/09 09:50:10;;;;;;;4.50;1.80;;;;;;;17.05;56.35;96357.56;10404851;28;20108;-21
2022/04/09 09:55:10;;;;;;;8.88;1.58;;;;;;;17.03;56.19;96361.81;10419282;28;20029;-22
2022/04/09 10:00:13;;;;;;;4.77;1.10;;;;;;;17.03;56.04;96364.34;10411570;28;20041;-22
2022/04/09 10:05:13;;;;;;;8.02;1.40;;;;;;;17.03;57.27;96382.03;10412950;28;20034;-22
2022/04/09 10:10:14;;;;;;;4.67;1.23;;;;;;;17.01;55.88;96371.09;10408517;28;20045;-21
2022/04/09 10:15:16;;;;;;;4.20;1.70;;;;;;;17.07;58.89;96376.16;10407341;28;20030;-22
2022/04/09 10:20:19;;;;;;;7.90;1.55;;;;;;;17.10;58.87;96376.13;10409943;28;20044;-22
2022/04/09 10:25:20;;;;;;;6.18;1.00;;;;;;;17.13;55.85;96376.13;10408374;28;20124;-22
2022/04/09 10:30:26;;;;;;;7.35;2.30;;;;;;;17.05;56.15;96372.75;10407463;28;20487;-22
2022/04/09 10:35:39;;;;;;;2.00;0.93;;;;;;;17.17;55.72;96372.78;10409331;28;20380;-23
2022/04/09 10:40:42;;;;;;;7.63;1.52;;;;;;;17.18;55.55;96389.63;10397923;28;20065;-21
2022/04/09 10:46:15;;;;;;;3.75;1.40;;;;;;;17.19;55.69;96377.00;10409884;28;20052;-22
2022/04/09 10:51:16;;;;;;;5.20;1.40;;;;;;;17.18;55.94;96380.38;10403898;28;20037;-22
2022/04/09 10:56:32;;;;;;;3.95;1.17;;;;;;;17.13;55.91;96382.03;10409803;28;20160;-22
2022/04/09 11:01:51;;;;;;;5.20;2.17;;;;;;;16.94;54.04;96380.38;10403580;28;20044;-21
2022/04/09 11:07:10;;;;;;;3.17;1.20;;;;;;;17.04;55.60;96386.25;10407441;28;20111;-22
2022/04/09 11:12:19;;;;;;;5.07;1.60;;;;;;;17.05;55.19;96387.94;10410236;28;20040;-22
2022/04/09 11:17:25;;;;;;;6.82;1.55;;;;;;;16.79;52.27;96370.22;10404231;28;20037;-22
2022/04/09 11:22:36;;;;;;;7.95;2.33;;;;;;;16.89;55.10;96381.22;10404323;28;20489;-22
2022/04/09 11:27:36;;;;;;;12.35;2.60;;;;;;;16.93;56.82;96372.75;10401133;28;20050;-23
2022/04/09 11:32:37;;;;;;;10.03;3.50;;;;;;;17.04;56.28;96377.00;10404663;28;20447;-22
2022/04/09 11:37:47;;;;;;;6.55;1.85;;;;;;;17.07;55.94;96376.16;10405266;28;20055;-22
2022/04/09 11:42:49;;;;;;;17.25;2.47;;;;;;;17.05;56.29;96377.81;10408630;28;20095;-22
2022/04/09 11:47:52;;;;;;;20.20;2.33;;;;;;;17.08;56.92;96375.31;10407114;28;20041;-22
2022/04/09 11:52:52;;;;;;;10.23;1.77;;;;;;;17.06;56.87;96385.41;10409866;28;20043;-22
2022/04/09 11:57:54;;;;;;;7.03;2.00;;;;;;;17.03;56.33;96393.00;10408408;28;20096;-21
2022/04/09 12:02:54;;;;;;;12.57;2.80;;;;;;;17.07;57.06;96383.75;10404474;28;20039;-21
2022/04/09 12:07:55;;;;;;;7.80;1.85;;;;;;;16.97;57.10;96370.25;10405601;28;20025;-21
2022/04/09 12:12:56;;;;;;;7.75;1.58;;;;;;;17.10;57.39;96383.72;10378719;28;20049;-23
2022/04/09 12:17:57;;;;;;;7.70;1.63;;;;;;;17.15;57.40;96380.34;10362283;28;20112;-22
2022/04/09 12:22:58;;;;;;;14.02;2.45;;;;;;;17.25;56.33;96374.44;10362442;28;20112;-22
2022/04/09 12:27:58;;;;;;;10.90;2.88;;;;;;;17.37;56.00;96363.50;10366542;28;20042;-21
2022/04/09 12:33:10;;;;;;;11.20;2.13;;;;;;;17.38;51.99;96368.56;10360006;28;20423;-22
2022/04/09 12:38:10;;;;;;;8.05;1.48;;;;;;;17.34;53.72;96368.53;10361779;28;20281;-21
2022/04/09 12:43:40;;;;;;;5.32;1.52;;;;;;;17.58;55.09;96369.34;10365440;28;20116;-22
2022/04/09 12:48:47;;;;;;;7.32;2.40;;;;;;;17.72;55.41;96361.72;10364395;28;20038;-22
2022/04/09 12:53:49;;;;;;;8.13;2.60;;;;;;;17.79;55.25;96356.66;10353403;28;20546;-20
2022/04/09 12:58:49;;;;;;;8.68;1.95;;;;;;;17.37;51.08;96358.44;10366019;28;20038;-22
2022/04/09 13:03:50;;;;;;;9.23;1.73;;;;;;;17.43;49.58;96368.56;10362016;28;20400;-22
2022/04/09 13:08:50;;;;;;;8.80;2.00;;;;;;;17.20;47.32;96362.63;10371228;28;20304;-21
2022/04/09 13:13:50;;;;;;;3.90;1.60;;;;;;;17.15;47.53;96365.16;10372734;28;20060;-21
2022/04/09 13:18:51;;;;;;;4.60;1.77;;;;;;;17.42;48.22;96370.22;10368602;28;20046;-22
2022/04/09 13:23:51;;;;;;;16.33;3.23;;;;;;;17.44;50.76;96367.72;10368765;28;20053;-22
2022/04/09 13:28:51;;;;;;;7.07;1.80;;;;;;;17.44;51.67;96372.75;10371662;28;20299;-21
2022/04/09 13:33:52;;;;;;;6.23;1.50;;;;;;;17.38;52.05;96357.59;10372391;28;20666;-22
2022/04/09 13:38:52;;;;;;;5.20;1.33;;;;;;;17.44;52.15;96367.72;10367328;28;20313;-22
2022/04/09 13:43:54;;;;;;;7.10;2.00;;;;;;;17.35;52.85;96362.63;10371632;28;20052;-21
2022/04/09 13:48:54;;;;;;;8.55;1.75;;;;;;;17.38;52.73;96363.50;10369080;28;20087;-21
2022/04/09 13:53:55;;;;;;;4.60;1.77;;;;;;;17.39;53.11;96365.19;10366606;28;20040;-23
2022/04/09 13:58:56;;;;;;;6.35;1.60;;;;;;;17.40;53.37;96355.91;10369611;28;20034;-21
2022/04/09 14:03:57;;;;;;;4.90;1.30;;;;;;;17.41;53.03;96347.47;10370847;28;20462;-23
2022/04/09 14:08:57;;;;;;;5.22;1.38;;;;;;;17.40;53.47;96346.63;10363879;28;20038;-22
2022/04/09 14:13:58;;;;;;;5.93;1.53;;;;;;;17.37;53.92;96354.22;10370492;28;20485;-22
2022/04/09 14:18:58;;;;;;;6.68;1.45;;;;;;;17.40;53.48;96350.84;10368906;28;20037;-22
2022/04/09 14:23:59;;;;;;;3.67;1.27;;;;;;;17.38;53.52;96352.53;10365663;28;20034;-21
2022/04/09 14:29:01;;;;;;;4.50;1.43;;;;;;;17.37;52.39;96349.16;10369154;28;20042;-22
2022/04/09 14:34:02;;;;;;;6.40;1.58;;;;;;;17.13;52.40;96308.69;10366736;28;20308;-21
2022/04/09 14:39:06;;;;;;;6.18;1.42;;;;;;;17.38;53.09;96347.47;10368380;28;20026;-23
2022/04/09 14:44:07;;;;;;;2.88;1.10;;;;;;;17.42;53.23;96341.56;10369649;28;20042;-21
2022/04/09 14:49:08;;;;;;;6.85;1.85;;;;;;;17.42;53.19;96346.63;10367573;28;20038;-22
2022/04/09 14:54:12;;;;;;;2.40;1.38;;;;;;;17.41;53.23;96342.41;10358171;28;20112;-22
2022/04/09 14:59:12;;;;;;;2.72;1.40;;;;;;;17.40;53.27;96349.16;10367791;28;20109;-24
2022/04/09 15:04:14;;;;;;;2.73;1.30;;;;;;;17.40;53.66;96343.28;10368450;28;20473;-22
2022/04/09 15:09:15;;;;;;;7.55;1.48;;;;;;;17.41;53.39;96347.47;10366331;28;20068;-23
2022/04/09 15:14:15;;;;;;;5.45;1.42;;;;;;;17.46;53.74;96355.88;10364878;28;20044;-22
2022/04/09 15:19:15;;;;;;;3.17;1.13;;;;;;;17.46;53.51;96359.28;10368986;28;20065;-21
2022/04/09 15:24:16;;;;;;;4.13;1.47;;;;;;;17.43;54.48;96355.91;10364244;28;20826;-21
2022/04/09 15:29:17;;;;;;;2.47;1.17;;;;;;;17.45;53.59;96370.25;10357274;28;20030;-21
2022/04/09 15:34:18;;;;;;;10.63;1.70;;;;;;;17.28;51.74;96366.00;10352987;28;20782;-21
2022/04/09 15:39:18;;;;;;;5.85;1.65;;;;;;;17.24;52.34;96380.34;10362769;28;20036;-23
2022/04/09 15:44:18;;;;;;;5.17;1.43;;;;;;;17.33;53.17;96375.28;10360136;28;20026;-23
2022/04/09 15:49:21;;;;;;;4.78;1.20;;;;;;;17.34;53.14;96360.94;10358449;28;20057;-21
2022/04/09 15:54:21;;;;;;;5.00;1.02;;;;;;;17.42;53.50;96387.13;10365598;28;20045;-22
2022/04/09 15:59:21;;;;;;;8.87;1.43;;;;;;;17.31;51.19;96387.09;10360760;28;20026;-31
2022/04/09 16:04:22;;;;;;;5.93;1.50;;;;;;;17.31;52.50;96388.78;10362585;28;20091;-22
2022/04/09 16:09:22;;;;;;;50.05;7.38;;;;;;;17.35;53.13;96385.41;10363134;28;20497;-23
2022/04/09 16:14:23;;;;;;;6.57;1.50;;;;;;;17.42;53.36;96394.72;10365663;28;20156;-22
2022/04/09 16:19:23;;;;;;;9.25;2.00;;;;;;;17.26;52.54;96393.00;10360813;28;20036;-20
2022/04/09 16:24:24;;;;;;;11.83;1.77;;;;;;;17.21;52.00;96402.25;10362167;28;20053;-23
2022/04/09 16:29:25;;;;;;;15.75;2.17;;;;;;;17.22;52.36;96401.41;10366213;28;20030;-22
2022/04/09 16:34:25;;;;;;;10.80;1.70;;;;;;;17.33;53.24;96422.53;10367150;28;20038;-22
2022/04/09 16:39:26;;;;;;;9.10;1.90;;;;;;;17.33;53.46;96425.88;10365099;28;20060;-22
2022/04/09 16:44:26;;;;;;;7.15;1.40;;;;;;;17.35;53.49;96425.88;10374292;28;20415;-22
2022/04/09 16:49:27;;;;;;;8.68;1.88;;;;;;;17.31;54.22;96417.44;10371636;28;20033;-21
2022/04/09 16:54:27;;;;;;;10.43;1.87;;;;;;;17.43;54.43;96441.94;10369612;28;20496;-22
2022/04/09 16:59:28;;;;;;;4.87;1.40;;;;;;;17.45;53.43;96441.09;10370417;28;20392;-22
2022/04/09 17:04:28;;;;;;;9.52;2.85;;;;;;;17.38;53.52;96449.53;10373891;28;20167;-21
2022/04/09 17:09:29;;;;;;;4.80;1.30;;;;;;;17.42;53.15;96453.75;10367328;28;20404;-22
2022/04/09 17:14:29;;;;;;;5.38;1.70;;;;;;;17.39;53.27;96455.41;10369251;28;20034;-22
2022/04/09 17:19:34;;;;;;;7.57;1.87;;;;;;;17.33;53.58;96450.34;10367780;28;20030;-22
2022/04/09 17:24:34;;;;;;;5.93;1.40;;;;;;;17.36;53.01;96471.47;10361604;28;20466;-28
2022/04/09 17:29:35;;;;;;;6.40;1.37;;;;;;;17.36;53.43;96474.00;10368598;28;20038;-23
2022/04/09 17:34:35;;;;;;;4.00;1.55;;;;;;;17.47;55.03;96474.84;10356495;28;20034;-22
2022/04/09 17:39:41;;;;;;;6.90;1.70;;;;;;;17.50;53.92;96479.88;10367515;28;20066;-22
2022/04/09 17:44:42;;;;;;;3.20;1.17;;;;;;;17.45;53.27;96475.69;10348985;28;20045;-22
2022/04/09 17:49:43;;;;;;;3.05;1.00;;;;;;;17.39;53.26;96476.53;10364935;28;20500;-22
2022/04/09 17:54:43;;;;;;;5.20;1.25;;;;;;;17.38;53.71;96474.84;10354806;28;20034;-22
2022/04/09 17:59:44;;;;;;;6.55;1.20;;;;;;;17.39;53.68;96475.66;10357476;28;20029;-22
2022/04/09 18:04:44;;;;;;;3.35;1.38;;;;;;;17.39;53.51;96486.66;10366363;28;20030;-22
2022/04/09 18:09:44;;;;;;;5.70;3.23;;;;;;;17.38;53.29;96489.16;10352544;28;20511;-22
2022/04/09 18:14:45;;;;;;;3.53;1.10;;;;;;;17.37;53.40;96500.13;10362313;28;20292;-23
2022/04/09 18:19:45;;;;;;;6.33;1.57;;;;;;;17.51;56.02;96495.94;10363857;28;20038;-22
2022/04/09 18:24:49;;;;;;;5.73;1.77;;;;;;;17.31;53.61;96477.34;10362478;28;20033;-22
2022/04/09 18:29:50;;;;;;;2.58;0.98;;;;;;;17.43;53.57;96512.81;10365490;28;20050;-22
2022/04/09 18:34:50;;;;;;;3.08;1.27;;;;;;;17.41;53.30;96527.97;10358153;28;20038;-22
2022/04/09 18:39:51;;;;;;;5.28;1.10;;;;;;;17.39;53.63;96526.28;10356829;28;20042;-23
2022/04/09 18:44:51;;;;;;;1.77;0.90;;;;;;;17.41;53.50;96544.84;10359906;28;20625;-23
2022/04/09 18:49:52;;;;;;;2.90;1.00;;;;;;;17.40;53.43;96543.19;10359076;28;20093;-21
2022/04/09 18:54:52;;;;;;;1.80;1.03;;;;;;;17.41;53.11;96557.50;10346269;28;20036;-21
2022/04/09 18:59:52;;;;;;;2.00;0.80;;;;;;;17.39;53.28;96566.75;10350481;28;20125;-22
2022/04/09 19:04:53;;;;;;;4.07;1.57;;;;;;;17.50;55.02;96572.72;10361878;28;20296;-22
2022/04/09 19:09:53;;;;;;;1.97;1.00;;;;;;;17.57;55.62;96582.00;10356927;28;20312;-21
2022/04/09 19:14:54;;;;;;;4.27;1.10;;;;;;;17.51;53.18;96582.81;10364206;28;20283;-22
2022/04/09 19:19:57;;;;;;;3.27;0.90;;;;;;;17.46;53.13;96588.72;10357643;28;20118;-21
2022/04/09 19:24:57;;;;;;;3.42;1.13;;;;;;;17.44;53.36;96605.59;10360221;28;20049;-22
2022/04/09 19:29:58;;;;;;;4.83;2.13;;;;;;;17.41;54.81;96605.59;10354915;28;20377;-22
2022/04/09 19:34:59;;;;;;;2.53;1.10;;;;;;;17.40;53.35;96619.09;10361997;28;20045;-22
2022/04/09 19:40:02;;;;;;;2.03;0.93;;;;;;;17.42;53.10;96630.88;10335673;28;20041;-22
2022/04/09 19:45:05;;;;;;;3.85;1.25;;;;;;;17.46;53.64;96640.19;10363398;28;20045;-23
2022/04/09 19:50:06;;;;;;;5.45;1.52;;;;;;;17.53;56.47;96634.31;10359069;28;20091;-21
2022/04/09 19:55:08;;;;;;;3.00;0.88;;;;;;;17.56;53.54;96646.97;10326944;28;20089;-22
2022/04/09 20:00:09;;;;;;;3.90;1.10;;;;;;;17.53;53.03;96653.69;10358018;28;20044;-22
2022/04/09 20:05:09;;;;;;;2.33;1.40;;;;;;;17.49;53.17;96654.53;10363435;28;20048;-21
2022/04/09 20:10:10;;;;;;;1.47;0.90;;;;;;;17.49;53.08;96654.53;10352538;28;20050;-22
2022/04/09 20:15:10;;;;;;;2.00;1.20;;;;;;;17.50;53.19;96671.41;10358878;28;20315;-23
2022/04/09 20:20:11;;;;;;;1.70;0.80;;;;;;;17.49;53.20;96667.19;10362802;28;20383;-22
2022/04/09 20:25:12;;;;;;;2.10;0.80;;;;;;;17.47;52.93;96666.31;10363456;28;20087;-22
2022/04/09 20:30:13;;;;;;;2.88;0.90;;;;;;;17.45;52.96;96673.06;10370468;28;20123;-22
2022/04/09 20:35:13;;;;;;;4.53;1.40;;;;;;;17.50;53.31;96667.19;10343012;28;20025;-22
2022/04/09 20:40:13;;;;;;;4.65;1.30;;;;;;;17.62;55.66;96681.56;10368631;28;20103;-21
2022/04/09 20:45:14;;;;;;;3.30;0.97;;;;;;;17.58;53.28;96679.88;10372244;28;20044;-21
2022/04/09 20:50:14;;;;;;;1.50;0.67;;;;;;;17.55;53.01;96689.97;10374342;28;20041;-23
2022/04/09 20:55:16;;;;;;;2.58;0.95;;;;;;;17.50;53.05;96682.38;10340218;28;20026;-22
2022/04/09 21:00:16;;;;;;;3.08;0.98;;;;;;;17.47;53.12;96692.50;10333475;28;20077;-22
2022/04/09 21:05:17;;;;;;;1.08;0.60;;;;;;;17.46;53.00;96692.47;10333734;28;20129;-21
2022/04/09 21:10:17;;;;;;;0.77;0.73;;;;;;;17.45;53.03;96703.44;10333077;28;20062;-21
2022/04/09 21:15:18;;;;;;;2.25;0.70;;;;;;;17.45;53.02;96719.50;10333562;28;20038;-22
2022/04/09 21:20:19;;;;;;;2.20;0.87;;;;;;;17.43;53.12;96725.38;10341003;28;20176;-21
2022/04/09 21:25:20;;;;;;;1.95;1.10;;;;;;;17.44;53.54;96727.06;10364409;28;20312;-21
2022/04/09 21:30:20;;;;;;;3.73;1.10;;;;;;;17.57;57.68;96738.94;10362624;28;20409;-22
2022/04/09 21:35:21;;;;;;;1.25;0.68;;;;;;;17.59;54.49;96752.44;10358016;28;20296;-21
2022/04/09 21:40:22;;;;;;;1.02;0.68;;;;;;;17.51;53.58;96746.50;10337697;28;20493;-21
2022/04/09 21:45:22;;;;;;;2.20;0.85;;;;;;;17.44;53.19;96757.44;10332026;28;20044;-21
2022/04/09 21:50:23;;;;;;;4.87;1.00;;;;;;;17.45;53.27;96766.72;10372675;28;20471;-21
2022/04/09 21:55:23;;;;;;;0.75;0.55;;;;;;;17.41;53.30;96777.69;10336409;28;20397;-23
2022/04/09 22:00:39;;;;;;;1.43;0.87;;;;;;;17.40;53.16;96776.00;10342891;28;20044;-22
2022/04/09 22:05:40;;;;;;;2.03;0.65;;;;;;;17.38;53.26;96787.78;10371999;28;20049;-23
2022/04/09 22:10:41;;;;;;;0.70;0.52;;;;;;;17.37;53.45;96788.63;10333978;28;20047;-22
2022/04/09 22:15:42;;;;;;;1.27;0.68;;;;;;;17.39;53.32;96799.59;10330493;28;20034;-23
2022/04/09 22:20:43;;;;;;;4.88;0.95;;;;;;;17.50;57.23;96808.09;10330616;28;20040;-22
2022/04/09 22:25:43;;;;;;;3.30;1.60;;;;;;;17.59;57.39;96805.59;10330473;28;20042;-21
2022/04/09 22:30:43;;;;;;;1.90;0.67;;;;;;;17.50;54.07;96811.47;10331119;28;20285;-21
2022/04/09 22:35:44;;;;;;;2.23;0.83;;;;;;;17.42;53.21;96810.56;10368345;28;20753;-22
2022/04/09 22:40:44;;;;;;;2.97;0.70;;;;;;;17.40;53.54;96812.25;10332635;28;20522;-22
2022/04/09 22:45:45;;;;;;;1.93;0.67;;;;;;;17.36;53.21;96823.22;10329417;28;20034;-22
2022/04/09 22:50:45;;;;;;;1.47;0.70;;;;;;;17.38;53.25;96818.13;10356306;28;20030;-22
2022/04/09 22:55:45;;;;;;;1.17;0.60;;;;;;;17.36;53.19;96814.75;10331334;28;20034;-22
2022/04/09 23:00:46;;;;;;;1.33;0.73;;;;;;;17.36;52.94;96833.34;10329428;28;20045;-22
2022/04/09 23:05:46;;;;;;;1.27;0.80;;;;;;;17.36;53.49;96824.88;10329005;28;20113;-22
2022/04/09 23:10:47;;;;;;;0.50;0.40;;;;;;;17.39;53.43;96835.00;10328840;28;20030;-22
2022/04/09 23:15:47;;;;;;;2.07;0.83;;;;;;;17.52;57.48;96831.72;10329597;28;20034;-23
2022/04/09 23:20:47;;;;;;;2.93;1.10;;;;;;;17.55;57.38;96836.78;10366709;28;20038;-21
2022/04/09 23:25:48;;;;;;;2.10;1.40;;;;;;;17.47;53.47;96843.50;10330343;28;20034;-22